Time;durP1;ratioP1;P1;durP2;ratioP2;P2;SDS_P1;SDS_P2;PMS_P1;PMS_P2;Temp;Humidity;BMP_temperature;BMP_pressure;BME280_temperature;BME280_humidity;BME280_pressure;Samples;Min_cycle;Max_cycle;Signal;HPM_P1;HPM_P2
2023/10/08 00:01:40;;;;;;;;;;;;;;;21.32;66.99;101580.50;5046839;28;19917;-85
2023/10/08 00:04:07;;;;;;;;;;;;;;;21.29;66.96;101577.78;5014867;28;19927;-85
2023/10/08 00:06:33;;;;;;;;;;;;;;;21.29;66.61;101579.53;5032311;28;19968;-86
2023/10/08 00:09:07;;;;;;;;;;;;;;;21.29;66.84;101571.56;5029095;28;19960;-86
2023/10/08 00:11:34;;;;;;;;;;;;;;;21.28;66.88;101567.13;5014946;28;19924;-86
2023/10/08 00:14:01;;;;;;;;;;;;;;;21.31;66.61;101564.50;5000060;28;19922;-86
2023/10/08 00:16:28;;;;;;;;;;;;;;;21.32;66.79;101567.22;5031512;28;19928;-86
2023/10/08 00:18:58;;;;;;;;;;;;;;;21.28;66.89;101560.03;5024129;28;20077;-84
2023/10/08 00:21:27;;;;;;;;;;;;;;;21.31;66.62;101564.50;5005363;28;19921;-85
2023/10/08 00:23:52;;;;;;;;;;;;;;;21.29;66.62;101550.28;5029419;28;19925;-86
2023/10/08 00:26:27;;;;;;;;;;;;;;;21.27;66.32;101546.72;5028096;28;20020;-84
2023/10/08 00:29:16;;;;;;;;;;;;;;;21.22;66.69;101553.69;5024877;28;19971;-86
2023/10/08 00:31:45;;;;;;;;;;;;;;;21.22;66.58;101548.38;5026927;28;19921;-85
2023/10/08 00:34:14;;;;;;;;;;;;;;;21.27;66.47;101544.97;5009775;28;20402;-85
2023/10/08 00:36:46;;;;;;;;;;;;;;;21.22;66.56;101543.06;5025691;28;19963;-85
2023/10/08 00:39:16;;;;;;;;;;;;;;;21.21;66.42;101538.59;5008896;28;19981;-85
2023/10/08 00:41:43;;;;;;;;;;;;;;;21.18;66.54;101542.09;5026334;28;19925;-85
2023/10/08 00:44:15;;;;;;;;;;;;;;;21.19;66.59;101535.00;5027981;28;19925;-85
2023/10/08 00:46:49;;;;;;;;;;;;;;;21.17;65.83;101539.38;5034660;28;19921;-85
2023/10/08 00:50:04;;;;;;;;;;;;;;;21.15;66.00;101531.41;5008543;28;20371;-86
2023/10/08 00:52:26;;;;;;;;;;;;;;;21.16;66.12;101538.50;5021289;28;19975;-85
2023/10/08 00:55:04;;;;;;;;;;;;;;;21.18;66.04;101533.22;5013983;28;19952;-85
2023/10/08 00:57:34;;;;;;;;;;;;;;;21.15;66.29;101528.75;5020296;28;19924;-86
2023/10/08 00:59:59;;;;;;;;;;;;;;;21.12;66.22;101528.66;5017556;28;19921;-85
2023/10/08 01:02:28;;;;;;;;;;;;;;;21.15;65.83;101534.06;5023360;28;19921;-85
2023/10/08 01:04:57;;;;;;;;;;;;;;;21.14;66.12;101526.94;5033936;28;19953;-87
2023/10/08 01:07:23;;;;;;;;;;;;;;;21.18;65.90;101519.94;5037186;28;20012;-85
2023/10/08 01:09:59;;;;;;;;;;;;;;;21.13;65.87;101519.84;5016520;28;19928;-85
2023/10/08 01:14:53;;;;;;;;;;;;;;;21.13;66.21;101520.75;5024632;28;20008;-87
2023/10/08 01:17:19;;;;;;;;;;;;;;;21.10;66.08;101518.03;5032370;28;19925;-86
2023/10/08 01:19:53;;;;;;;;;;;;;;;21.12;65.95;101507.41;5020393;28;19971;-85
2023/10/08 01:22:21;;;;;;;;;;;;;;;21.11;65.96;101506.53;5019979;28;20011;-86
2023/10/08 01:24:48;;;;;;;;;;;;;;;21.06;65.46;101502.88;5008786;28;19925;-87
2023/10/08 01:27:20;;;;;;;;;;;;;;;21.04;66.03;101504.59;5028096;28;19975;-87
2023/10/08 01:29:46;;;;;;;;;;;;;;;21.05;65.85;101500.19;5028573;28;19928;-87
2023/10/08 01:32:15;;;;;;;;;;;;;;;21.09;65.66;101502.94;5047472;28;19921;-84
2023/10/08 01:34:45;;;;;;;;;;;;;;;21.03;65.75;101497.50;4996852;28;19978;-85
2023/10/08 01:37:13;;;;;;;;;;;;;;;21.05;65.54;101494.88;5027758;28;20382;-85
2023/10/08 01:39:42;;;;;;;;;;;;;;;21.02;65.22;101500.09;5010389;28;19928;-85
2023/10/08 01:42:15;;;;;;;;;;;;;;;21.02;65.41;101502.75;5036357;28;19929;-85
2023/10/08 01:44:40;;;;;;;;;;;;;;;20.99;65.13;101500.94;5040791;28;19921;-85
2023/10/08 01:47:06;;;;;;;;;;;;;;;21.03;65.50;101502.78;5052460;28;19916;-84
2023/10/08 01:49:33;;;;;;;;;;;;;;;21.01;64.95;101496.56;5040265;28;19917;-86
2023/10/08 01:51:59;;;;;;;;;;;;;;;21.01;65.33;101490.34;5042292;28;20374;-84
2023/10/08 01:54:26;;;;;;;;;;;;;;;20.98;65.15;101496.50;5020380;28;20401;-85
2023/10/08 01:56:51;;;;;;;;;;;;;;;20.93;65.54;101499.06;5042548;28;19924;-86
2023/10/08 01:59:17;;;;;;;;;;;;;;;20.93;65.27;101487.50;5024653;28;20305;-84
2023/10/08 02:01:43;;;;;;;;;;;;;;;20.94;65.46;101489.31;5027524;28;19979;-84
2023/10/08 02:04:09;;;;;;;;;;;;;;;20.96;65.54;101487.59;5040742;28;19925;-86
2023/10/08 02:06:35;;;;;;;;;;;;;;;20.94;65.26;101492.88;5055827;28;19923;-86
2023/10/08 02:09:07;;;;;;;;;;;;;;;20.91;64.91;101492.81;5049988;28;20023;-86
2023/10/08 02:11:43;;;;;;;;;;;;;;;20.89;65.51;101489.22;5046539;28;19921;-86
2023/10/08 02:14:08;;;;;;;;;;;;;;;20.96;65.62;101486.72;5039173;28;19925;-87
2023/10/08 02:16:34;;;;;;;;;;;;;;;20.96;65.72;101481.41;5033671;28;19917;-85
2023/10/08 02:18:59;;;;;;;;;;;;;;;21.02;65.45;101479.78;5051288;28;19983;-86
2023/10/08 02:21:25;;;;;;;;;;;;;;;20.98;65.40;101477.91;5029692;28;19920;-85
2023/10/08 02:23:52;;;;;;;;;;;;;;;20.98;65.29;101477.91;5031986;28;19921;-83
2023/10/08 02:26:19;;;;;;;;;;;;;;;20.93;65.45;101472.50;5017634;28;20435;-85
2023/10/08 02:28:45;;;;;;;;;;;;;;;20.95;65.55;101475.16;5052086;28;19924;-86
2023/10/08 02:31:12;;;;;;;;;;;;;;;20.96;65.28;101474.31;5033908;28;19917;-87
2023/10/08 02:33:37;;;;;;;;;;;;;;;20.91;65.65;101473.31;5051367;28;19924;-86
2023/10/08 02:36:04;;;;;;;;;;;;;;;20.91;65.42;101466.25;5034323;28;20409;-86
2023/10/08 02:38:31;;;;;;;;;;;;;;;20.94;65.37;101473.38;5039880;28;19923;-85
2023/10/08 02:40:57;;;;;;;;;;;;;;;20.95;65.44;101467.19;5054090;28;19972;-87
2023/10/08 02:43:23;;;;;;;;;;;;;;;20.96;65.58;101463.69;5056816;28;20043;-86
2023/10/08 02:45:49;;;;;;;;;;;;;;;20.93;65.46;101468.94;5053964;28;19948;-87
2023/10/08 02:48:16;;;;;;;;;;;;;;;20.92;65.49;101468.03;5054921;28;19917;-85
2023/10/08 02:50:47;;;;;;;;;;;;;;;20.89;65.46;101467.97;5036066;28;20386;-86
2023/10/08 02:53:17;;;;;;;;;;;;;;;20.91;65.47;101468.00;5035232;28;19987;-85
2023/10/08 02:55:46;;;;;;;;;;;;;;;20.94;65.42;101471.63;5045492;28;19925;-86
2023/10/08 02:58:14;;;;;;;;;;;;;;;20.90;65.22;101463.56;5028882;28;19913;-86
2023/10/08 03:00:43;;;;;;;;;;;;;;;20.86;65.18;101464.34;5036163;28;19921;-86
2023/10/08 03:03:18;;;;;;;;;;;;;;;20.86;65.30;101464.34;5039897;28;19999;-86
2023/10/08 03:05:50;;;;;;;;;;;;;;;20.85;65.42;101452.84;5043232;28;20016;-85
2023/10/08 03:08:20;;;;;;;;;;;;;;;20.81;64.95;101458.06;5033962;28;19917;-84
2023/10/08 03:10:48;;;;;;;;;;;;;;;20.80;64.79;101451.81;5044723;28;19916;-86
2023/10/08 03:13:17;;;;;;;;;;;;;;;20.79;65.20;101449.16;5043765;28;20212;-85
2023/10/08 03:16:07;;;;;;;;;;;;;;;20.80;65.17;101445.63;5053287;28;19924;-84
2023/10/08 03:18:36;;;;;;;;;;;;;;;20.84;64.98;101443.06;5024487;28;19925;-86
2023/10/08 03:21:06;;;;;;;;;;;;;;;20.80;65.03;101443.84;5040716;28;20377;-85
2023/10/08 03:23:34;;;;;;;;;;;;;;;20.78;64.88;101442.03;5033948;28;19994;-85
2023/10/08 03:26:01;;;;;;;;;;;;;;;20.79;64.12;101447.38;5049823;28;20022;-85
2023/10/08 03:28:29;;;;;;;;;;;;;;;20.76;64.77;101443.75;5052269;28;20412;-84
2023/10/08 03:31:04;;;;;;;;;;;;;;;20.71;64.88;101446.31;5050515;28;19935;-85
2023/10/08 03:33:34;;;;;;;;;;;;;;;20.77;64.87;101448.22;5020879;28;19921;-86
2023/10/08 03:36:04;;;;;;;;;;;;;;;20.73;64.76;101450.78;5046808;28;19928;-85
2023/10/08 03:38:50;;;;;;;;;;;;;;;20.73;64.92;101442.81;5058680;28;19921;-85
2023/10/08 03:41:17;;;;;;;;;;;;;;;20.69;64.95;101443.59;5041045;28;19921;-85
2023/10/08 03:43:52;;;;;;;;;;;;;;;20.67;64.73;101445.34;5042189;28;19983;-85
2023/10/08 03:46:17;;;;;;;;;;;;;;;20.69;64.90;101437.41;5023813;28;19921;-85
2023/10/08 03:48:44;;;;;;;;;;;;;;;20.66;64.91;101432.94;5030264;28;19932;-86
2023/10/08 03:51:11;;;;;;;;;;;;;;;20.68;65.12;101432.94;5016305;28;19956;-85
2023/10/08 03:53:59;;;;;;;;;;;;;;;20.72;64.76;101433.09;5015267;28;19929;-85
2023/10/08 03:56:25;;;;;;;;;;;;;;;20.66;64.66;101421.44;5032840;28;19921;-85
2023/10/08 03:58:53;;;;;;;;;;;;;;;20.65;64.75;101419.63;5020106;28;19921;-85
2023/10/08 04:01:20;;;;;;;;;;;;;;;20.65;64.74;101420.50;5028727;28;19921;-85
2023/10/08 04:06:16;;;;;;;;;;;;;;;20.65;64.92;101416.97;5013367;28;19921;-86
2023/10/08 04:08:58;;;;;;;;;;;;;;;20.63;64.45;101424.88;5037561;28;19976;-86
2023/10/08 04:11:35;;;;;;;;;;;;;;;20.60;64.51;101414.22;5006533;28;19983;-86
2023/10/08 04:14:02;;;;;;;;;;;;;;;20.61;64.23;101410.69;5027920;28;19943;-86
2023/10/08 04:16:28;;;;;;;;;;;;;;;20.62;64.00;101406.31;5028517;28;19925;-86
2023/10/08 04:18:55;;;;;;;;;;;;;;;20.60;64.49;101413.31;5029142;28;19932;-86
2023/10/08 04:21:21;;;;;;;;;;;;;;;20.59;64.32;101415.06;5028412;28;20323;-85
2023/10/08 04:23:52;;;;;;;;;;;;;;;20.56;64.18;101411.44;5027820;28;20021;-85
2023/10/08 04:26:23;;;;;;;;;;;;;;;20.55;63.88;101407.84;5008860;28;19926;-85
2023/10/08 04:28:58;;;;;;;;;;;;;;;20.56;63.90;101412.31;5022358;28;20481;-86
2023/10/08 04:31:28;;;;;;;;;;;;;;;20.54;63.80;101404.31;5030720;28;19932;-85
2023/10/08 04:33:54;;;;;;;;;;;;;;;20.52;64.37;101411.34;5031325;28;19929;-85
2023/10/08 04:36:20;;;;;;;;;;;;;;;20.53;64.62;101404.25;5026412;28;20000;-85
2023/10/08 04:38:47;;;;;;;;;;;;;;;20.51;64.18;101408.63;5024288;28;20826;-84
2023/10/08 04:41:17;;;;;;;;;;;;;;;20.50;64.35;101407.75;5009882;28;20020;-85
2023/10/08 04:43:42;;;;;;;;;;;;;;;20.53;64.64;101409.56;5025339;28;19947;-86
2023/10/08 04:46:33;;;;;;;;;;;;;;;20.52;64.66;101406.03;5036688;28;20398;-84
2023/10/08 04:49:04;;;;;;;;;;;;;;;20.54;64.56;101406.97;5025728;28;19917;-84
2023/10/08 04:51:34;;;;;;;;;;;;;;;20.50;64.76;101402.44;5012983;28;20024;-86
2023/10/08 04:54:00;;;;;;;;;;;;;;;20.50;63.41;101405.09;5027220;28;19925;-86
2023/10/08 04:56:28;;;;;;;;;;;;;;;20.45;64.46;101408.53;5019502;28;20500;-86
2023/10/08 04:58:53;;;;;;;;;;;;;;;20.47;63.66;101415.66;5016041;28;20020;-84
2023/10/08 05:04:23;;;;;;;;;;;;;;;20.45;63.79;101420.03;4985169;28;19925;-81
2023/10/08 05:20:01;;;;;;;;;;;;;;;20.37;64.07;101416.28;5029227;28;19921;-86
2023/10/08 05:31:11;;;;;;;;;;;;;;;20.35;64.21;101425.97;5014958;28;19921;-84
2023/10/08 05:38:13;;;;;;;;;;;;;;;20.33;64.40;101412.66;5037179;28;19929;-84
2023/10/08 05:44:38;;;;;;;;;;;;;;;20.35;63.83;101404.75;5027426;28;19932;-84
2023/10/08 05:59:52;;;;;;;;;;;;;;;20.34;64.20;101398.53;5029754;28;20382;-84
2023/10/08 06:13:09;;;;;;;;;;;;;;;20.34;64.48;101387.03;5049688;28;19960;-83
2023/10/08 06:15:48;;;;;;;;;;;;;;;20.34;64.34;101393.25;5041229;28;20606;-86
2023/10/08 06:18:14;;;;;;;;;;;;;;;20.33;64.14;101386.13;5032574;28;20456;-85
2023/10/08 06:20:43;;;;;;;;;;;;;;;20.37;64.19;101391.53;5045841;28;19929;-87
2023/10/08 06:23:18;;;;;;;;;;;;;;;20.37;63.83;101392.41;5027559;28;20019;-87
2023/10/08 06:25:47;;;;;;;;;;;;;;;20.37;63.45;101386.22;5027813;28;19925;-87
2023/10/08 06:28:13;;;;;;;;;;;;;;;20.35;63.61;101380.88;5027709;28;19926;-87
2023/10/08 06:30:40;;;;;;;;;;;;;;;20.38;63.62;101383.56;5027048;28;20016;-89
2023/10/08 06:33:06;;;;;;;;;;;;;;;20.38;63.25;101382.69;5028358;28;19924;-90
2023/10/08 06:35:33;;;;;;;;;;;;;;;20.40;63.07;101383.63;5029154;28;19920;-89
2023/10/08 06:38:04;;;;;;;;;;;;;;;20.34;63.52;101373.78;5014291;28;19921;-90
2023/10/08 06:43:21;;;;;;;;;;;;;;;20.38;63.31;101370.31;5036445;28;20008;-87
2023/10/08 06:45:52;;;;;;;;;;;;;;;20.37;63.30;101365.00;5029531;28;20306;-88
2023/10/08 06:48:20;;;;;;;;;;;;;;;20.36;63.82;101374.69;5029741;28;20035;-89
2023/10/08 06:50:46;;;;;;;;;;;;;;;20.38;63.17;101362.34;5045292;28;19994;-88
2023/10/08 06:53:13;;;;;;;;;;;;;;;20.40;63.24;101371.25;5030352;28;19920;-88
2023/10/08 06:55:40;;;;;;;;;;;;;;;20.34;63.64;101366.72;5029068;28;19921;-89
2023/10/08 06:58:05;;;;;;;;;;;;;;;20.38;63.42;101364.13;5025854;28;19948;-90
2023/10/08 07:01:08;;;;;;;;;;;;;;;20.39;63.41;101357.97;5029790;28;20401;-89
2023/10/08 07:03:25;;;;;;;;;;;;;;;20.32;63.26;101355.16;5026024;28;19959;-90
2023/10/08 07:05:57;;;;;;;;;;;;;;;20.36;63.22;101350.81;5013883;28;19924;-86
2023/10/08 07:08:24;;;;;;;;;;;;;;;20.34;63.03;101353.44;5021787;28;20714;-88
2023/10/08 07:10:53;;;;;;;;;;;;;;;20.38;62.93;101346.44;5021375;28;20357;-89
2023/10/08 07:13:21;;;;;;;;;;;;;;;20.30;64.01;101342.75;5024226;28;19982;-88
2023/10/08 07:15:49;;;;;;;;;;;;;;;20.07;63.15;101305.97;5014367;28;19928;-90
2023/10/08 07:18:26;;;;;;;;;;;;;;;20.26;63.67;101339.09;5057140;28;19920;-89
2023/10/08 07:21:00;;;;;;;;;;;;;;;20.30;63.42;101327.72;5028749;28;19917;-86
2023/10/08 07:23:27;;;;;;;;;;;;;;;20.26;63.13;101323.19;5044609;28;19920;-88
2023/10/08 07:26:17;;;;;;;;;;;;;;;20.29;63.19;101315.28;5037400;28;19924;-89
2023/10/08 07:28:42;;;;;;;;;;;;;;;20.32;62.82;101319.81;5046560;28;20406;-86
2023/10/08 07:31:15;;;;;;;;;;;;;;;20.33;63.90;101316.28;5041063;28;19971;-88
2023/10/08 07:33:43;;;;;;;;;;;;;;;20.35;63.08;101314.56;5031208;28;19921;-88
2023/10/08 07:36:12;;;;;;;;;;;;;;;20.40;63.68;101310.22;5036486;28;19921;-87
2023/10/08 07:38:44;;;;;;;;;;;;;;;20.41;60.12;101308.50;5050803;28;19925;-86
2023/10/08 07:41:12;;;;;;;;;;;;;;;20.26;61.19;101301.97;5030408;28;20325;-88
2023/10/08 07:43:46;;;;;;;;;;;;;;;20.20;62.03;101301.84;5025217;28;20716;-87
2023/10/08 07:46:14;;;;;;;;;;;;;;;20.19;62.46;101304.44;5028482;28;20008;-87
2023/10/08 07:48:42;;;;;;;;;;;;;;;20.21;62.41;101294.75;5048773;28;20378;-87
2023/10/08 07:51:08;;;;;;;;;;;;;;;20.28;62.33;101294.06;5034665;28;20016;-88
2023/10/08 07:53:40;;;;;;;;;;;;;;;20.28;62.37;101292.31;5040077;28;19952;-89
2023/10/08 07:56:10;;;;;;;;;;;;;;;20.28;63.05;101294.94;4997287;28;20383;-89
2023/10/08 07:58:36;;;;;;;;;;;;;;;20.31;62.87;101295.00;5031257;28;19921;-88
2023/10/08 08:01:08;;;;;;;;;;;;;;;20.21;63.15;101293.00;5036242;28;19957;-90
2023/10/08 08:03:37;;;;;;;;;;;;;;;20.23;62.34;101285.09;5004761;28;20016;-89
2023/10/08 08:06:05;;;;;;;;;;;;;;;20.16;62.64;101291.13;5012657;28;19917;-89
2023/10/08 08:08:31;;;;;;;;;;;;;;;20.26;62.45;101290.47;5006816;28;20081;-89
2023/10/08 08:11:05;;;;;;;;;;;;;;;20.30;62.36;101276.44;5022358;28;19928;-89
2023/10/08 08:13:33;;;;;;;;;;;;;;;20.28;61.87;101276.38;5028592;28;19927;-88
2023/10/08 08:16:09;;;;;;;;;;;;;;;20.26;62.19;101262.19;5036381;28;19929;-86
2023/10/08 08:18:36;;;;;;;;;;;;;;;20.20;62.11;101266.47;5044846;28;19917;-86
2023/10/08 08:21:02;;;;;;;;;;;;;;;20.29;61.96;101266.66;5012009;28;19988;-87
2023/10/08 08:23:30;;;;;;;;;;;;;;;20.22;61.83;101257.69;5030505;28;19925;-90
2023/10/08 08:26:06;;;;;;;;;;;;;;;20.26;62.46;101248.94;5032394;28;19921;-85
2023/10/08 08:28:32;;;;;;;;;;;;;;;20.17;62.62;101251.41;4997933;28;19956;-88
2023/10/08 08:31:04;;;;;;;;;;;;;;;20.21;62.20;101252.34;5010742;28;19979;-88
2023/10/08 08:33:52;;;;;;;;;;;;;;;20.24;62.58;101244.47;5028788;28;19961;-87
2023/10/08 08:36:20;;;;;;;;;;;;;;;20.13;62.64;101234.50;5028869;28;20007;-89
2023/10/08 08:38:45;;;;;;;;;;;;;;;20.20;62.61;101239.94;4996470;28;19992;-89
2023/10/08 08:41:12;;;;;;;;;;;;;;;20.19;62.88;101238.16;5028912;28;19921;-89
2023/10/08 08:43:43;;;;;;;;;;;;;;;20.17;62.52;101238.13;5011676;28;19948;-86
2023/10/08 08:46:12;;;;;;;;;;;;;;;20.13;62.96;101233.63;5021016;28;20397;-89
2023/10/08 08:48:41;;;;;;;;;;;;;;;20.16;62.85;101231.03;5011563;28;19921;-88
2023/10/08 08:51:07;;;;;;;;;;;;;;;20.21;63.17;101224.03;5031897;28;20326;-88
2023/10/08 08:53:36;;;;;;;;;;;;;;;20.19;62.36;101225.78;5004356;28;20378;-89
2023/10/08 08:56:04;;;;;;;;;;;;;;;20.14;63.26;101225.69;5020163;28;20383;-88
2023/10/08 08:58:31;;;;;;;;;;;;;;;20.17;60.93;101223.97;5029198;28;19913;-88
2023/10/08 09:00:57;;;;;;;;;;;;;;;20.20;62.02;101216.97;5013372;28;19960;-88
2023/10/08 09:03:30;;;;;;;;;;;;;;;20.12;62.82;101214.13;5013205;28;19921;-89
2023/10/08 09:05:58;;;;;;;;;;;;;;;20.10;61.88;101212.31;5012493;28;20003;-86
2023/10/08 09:08:27;;;;;;;;;;;;;;;20.11;61.90;101214.13;5021049;28;19937;-86
2023/10/08 09:10:53;;;;;;;;;;;;;;;20.08;61.56;101208.75;5023804;28;19921;-86
2023/10/08 09:13:23;;;;;;;;;;;;;;;20.09;62.62;101207.91;5006932;28;20333;-82
2023/10/08 09:15:51;;;;;;;;;;;;;;;20.11;61.10;101198.22;5010682;28;20430;-84
2023/10/08 09:18:17;;;;;;;;;;;;;;;20.18;62.73;101196.59;5010859;28;19949;-84
2023/10/08 09:20:43;;;;;;;;;;;;;;;20.14;62.51;101203.56;5029710;28;19926;-85
2023/10/08 09:23:12;;;;;;;;;;;;;;;20.18;62.08;101194.81;5029476;28;19998;-84
2023/10/08 09:25:43;;;;;;;;;;;;;;;20.13;61.85;101183.25;5022056;28;19929;-83
2023/10/08 09:28:08;;;;;;;;;;;;;;;20.15;62.09;101184.16;5028384;28;19925;-85
2023/10/08 09:30:37;;;;;;;;;;;;;;;20.26;62.13;101179.97;5026621;28;19928;-86
2023/10/08 09:33:06;;;;;;;;;;;;;;;20.24;61.67;101173.75;5009678;28;19917;-83
2023/10/08 09:35:32;;;;;;;;;;;;;;;20.19;62.11;101179.81;5019246;28;20020;-84
2023/10/08 09:37:57;;;;;;;;;;;;;;;20.19;61.86;101171.84;5028113;28;20040;-83
2023/10/08 09:40:22;;;;;;;;;;;;;;;20.22;62.29;101170.16;5032336;28;19932;-83
2023/10/08 09:42:48;;;;;;;;;;;;;;;20.21;62.23;101163.06;5053525;28;19925;-84
2023/10/08 09:45:13;;;;;;;;;;;;;;;20.23;61.95;101161.34;5026601;28;19917;-83
2023/10/08 09:47:41;;;;;;;;;;;;;;;20.23;62.45;101155.13;5052220;28;20027;-84
2023/10/08 09:50:11;;;;;;;;;;;;;;;20.28;61.08;101154.38;5028869;28;19921;-84
2023/10/08 09:52:39;;;;;;;;;;;;;;;20.38;60.74;101143.94;5047710;28;20457;-83
2023/10/08 09:55:10;;;;;;;;;;;;;;;20.36;61.50;101143.91;5030811;28;20393;-83
2023/10/08 09:57:36;;;;;;;;;;;;;;;20.45;61.63;101138.81;5047562;28;20430;-85
2023/10/08 10:00:01;;;;;;;;;;;;;;;20.33;61.56;101135.91;5041640;28;20012;-85
2023/10/08 10:02:27;;;;;;;;;;;;;;;20.27;61.75;101134.00;5026769;28;19921;-83
2023/10/08 10:04:53;;;;;;;;;;;;;;;20.23;61.76;101132.16;5023509;28;20678;-84
2023/10/08 10:07:19;;;;;;;;;;;;;;;20.24;61.33;101133.97;5050389;28;19929;-82
2023/10/08 10:09:46;;;;;;;;;;;;;;;20.26;61.69;101128.69;5047848;28;19925;-84
2023/10/08 10:12:12;;;;;;;;;;;;;;;20.33;61.75;101135.91;5055969;28;19920;-82
2023/10/08 10:14:42;;;;;;;;;;;;;;;20.47;61.84;101117.63;5043634;28;19951;-82
2023/10/08 10:17:11;;;;;;;;;;;;;;;20.52;61.74;101115.94;5043065;28;19928;-82
2023/10/08 10:19:37;;;;;;;;;;;;;;;20.40;61.78;101105.97;5046934;28;19979;-86
2023/10/08 10:22:03;;;;;;;;;;;;;;;20.43;61.48;101106.03;5030369;28;19933;-84
2023/10/08 10:24:37;;;;;;;;;;;;;;;20.39;61.03;101105.97;5045676;28;19935;-83
2023/10/08 10:27:10;;;;;;;;;;;;;;;20.45;61.42;101106.97;5033669;28;20306;-84
2023/10/08 10:29:36;;;;;;;;;;;;;;;20.39;61.51;101098.91;5042517;28;19995;-84
2023/10/08 10:32:02;;;;;;;;;;;;;;;20.33;61.81;101094.34;5047956;28;20386;-84
2023/10/08 10:34:27;;;;;;;;;;;;;;;20.54;61.21;101080.59;5044611;28;20004;-86
2023/10/08 10:36:59;;;;;;;;;;;;;;;20.65;60.63;101085.25;5026000;28;19925;-87
2023/10/08 10:39:30;;;;;;;;;;;;;;;20.62;60.36;101078.13;5027722;28;20384;-86
2023/10/08 10:42:03;;;;;;;;;;;;;;;20.58;60.30;101073.63;5023430;28;19965;-84
2023/10/08 10:44:32;;;;;;;;;;;;;;;20.61;60.57;101072.78;5025963;28;20019;-85
2023/10/08 10:52:26;;;;;;;;;;;;;;;20.68;59.99;101050.78;5011340;28;19932;-84
2023/10/08 10:54:58;;;;;;;;;;;;;;;20.67;59.50;101044.59;5008501;28;19921;-83
2023/10/08 10:57:34;;;;;;;;;;;;;;;20.78;59.25;101050.06;5025755;28;19921;-84
2023/10/08 11:02:49;;;;;;;;;;;;;;;20.80;58.20;101031.53;5026600;28;19928;-85
2023/10/08 11:05:19;;;;;;;;;;;;;;;20.80;57.95;101035.06;5027974;28;19926;-85
2023/10/08 11:07:46;;;;;;;;;;;;;;;20.69;58.67;101026.06;5012408;28;19928;-85
2023/10/08 11:10:15;;;;;;;;;;;;;;;20.64;59.53;101025.97;5022696;28;20294;-81
2023/10/08 11:12:47;;;;;;;;;;;;;;;20.57;60.24;101031.09;5016406;28;19928;-85
2023/10/08 11:15:16;;;;;;;;;;;;;;;20.66;59.88;101031.31;5011686;28;19921;-84
2023/10/08 11:17:43;;;;;;;;;;;;;;;20.78;58.32;101020.88;5035303;28;19921;-85
2023/10/08 11:20:24;;;;;;;;;;;;;;;20.74;59.16;101014.66;5010585;28;19936;-85
2023/10/08 11:22:51;;;;;;;;;;;;;;;20.75;58.80;101007.56;5021281;28;19971;-85
2023/10/08 11:25:24;;;;;;;;;;;;;;;20.66;59.21;101010.09;5027392;28;19921;-84
2023/10/08 11:27:52;;;;;;;;;;;;;;;20.73;58.67;101004.88;5030001;28;19921;-86
2023/10/08 11:30:17;;;;;;;;;;;;;;;20.71;59.44;101000.44;5012493;28;19921;-86
2023/10/08 11:32:48;;;;;;;;;;;;;;;20.67;60.07;100998.59;4996140;28;19940;-85
2023/10/08 11:35:17;;;;;;;;;;;;;;;20.78;58.95;101002.31;5037531;28;20398;-86
2023/10/08 11:37:48;;;;;;;;;;;;;;;20.78;59.61;100998.75;5009240;28;19995;-84
2023/10/08 11:40:28;;;;;;;;;;;;;;;20.72;59.59;100988.94;4997134;28;19976;-83
2023/10/08 11:42:56;;;;;;;;;;;;;;;20.77;59.31;100989.03;5002339;28;19992;-85
2023/10/08 11:45:26;;;;;;;;;;;;;;;20.78;59.52;100980.19;5026460;28;19928;-83
2023/10/08 11:48:03;;;;;;;;;;;;;;;20.79;58.96;100982.88;5030115;28;19925;-84
2023/10/08 11:50:31;;;;;;;;;;;;;;;20.79;59.16;100974.03;5022298;28;19948;-83
2023/10/08 11:53:01;;;;;;;;;;;;;;;20.85;59.21;100971.44;5029389;28;19947;-84
2023/10/08 11:55:27;;;;;;;;;;;;;;;20.90;59.03;100965.34;5025980;28;19921;-82
2023/10/08 11:57:53;;;;;;;;;;;;;;;20.89;58.84;100970.59;5021315;28;20370;-83
2023/10/08 12:00:27;;;;;;;;;;;;;;;20.89;59.50;100963.56;5014196;28;19936;-85
2023/10/08 12:02:56;;;;;;;;;;;;;;;20.94;59.53;100951.25;5030257;28;19929;-85
2023/10/08 12:05:24;;;;;;;;;;;;;;;20.97;58.70;100954.81;5030332;28;19928;-84
2023/10/08 12:07:51;;;;;;;;;;;;;;;20.97;59.28;100945.06;5024476;28;19928;-86
2023/10/08 12:10:22;;;;;;;;;;;;;;;20.98;58.54;100943.34;5027653;28;19921;-84
2023/10/08 12:12:54;;;;;;;;;;;;;;;21.01;59.16;100933.63;5027657;28;19921;-83
2023/10/08 12:15:26;;;;;;;;;;;;;;;21.03;59.01;100934.53;5023223;28;19922;-84
2023/10/08 12:20:37;;;;;;;;;;;;;;;21.15;59.31;100926.75;5011914;28;19983;-85
2023/10/08 12:23:03;;;;;;;;;;;;;;;21.16;59.09;100914.34;5026485;28;19925;-84
2023/10/08 12:25:28;;;;;;;;;;;;;;;21.20;58.93;100915.28;5024261;28;20299;-84
2023/10/08 12:27:54;;;;;;;;;;;;;;;21.15;59.25;100908.16;5031155;28;20402;-84
2023/10/08 12:30:30;;;;;;;;;;;;;;;21.13;58.99;100901.94;5027584;28;19933;-84
2023/10/08 12:32:57;;;;;;;;;;;;;;;21.03;59.52;100902.69;5029810;28;19921;-83
2023/10/08 12:35:24;;;;;;;;;;;;;;;21.18;59.75;100903.75;5031039;28;19928;-83
2023/10/08 12:37:49;;;;;;;;;;;;;;;21.20;58.63;100908.22;5011968;28;19929;-83
2023/10/08 12:40:24;;;;;;;;;;;;;;;21.21;59.23;100895.81;5020295;28;20318;-83
2023/10/08 12:42:50;;;;;;;;;;;;;;;21.27;58.95;100895.88;5048543;28;19928;-82
2023/10/08 12:45:20;;;;;;;;;;;;;;;21.24;59.05;100893.22;5044729;28;19928;-83
2023/10/08 12:47:49;;;;;;;;;;;;;;;21.23;59.03;100892.34;5018608;28;19983;-81
2023/10/08 12:50:15;;;;;;;;;;;;;;;21.29;58.74;100896.81;5047440;28;19925;-84
2023/10/08 12:52:47;;;;;;;;;;;;;;;21.26;58.75;100900.31;5051062;28;20317;-82
2023/10/08 12:55:12;;;;;;;;;;;;;;;21.30;58.67;100899.50;5048367;28;19920;-81
2023/10/08 12:57:39;;;;;;;;;;;;;;;21.34;59.06;100885.38;5044119;28;19929;-82
2023/10/08 13:00:05;;;;;;;;;;;;;;;21.28;59.05;100879.09;5032772;28;19920;-85
2023/10/08 13:02:30;;;;;;;;;;;;;;;21.34;58.60;100876.50;5062483;28;19928;-83
2023/10/08 13:04:57;;;;;;;;;;;;;;;21.30;59.08;100880.91;5048748;28;19924;-83
2023/10/08 13:07:22;;;;;;;;;;;;;;;21.29;58.95;100879.13;5047296;28;20413;-83
2023/10/08 13:09:48;;;;;;;;;;;;;;;21.41;58.04;100886.31;5033856;28;19972;-83
2023/10/08 13:12:15;;;;;;;;;;;;;;;21.31;58.72;100879.13;5046560;28;19921;-83
2023/10/08 13:14:41;;;;;;;;;;;;;;;21.33;58.31;100869.41;5040341;28;20315;-83
2023/10/08 13:17:10;;;;;;;;;;;;;;;21.33;58.81;100862.31;5023733;28;19920;-83
2023/10/08 13:19:36;;;;;;;;;;;;;;;21.36;58.26;100869.47;5046707;28;20040;-84
2023/10/08 13:22:06;;;;;;;;;;;;;;;21.23;58.86;100863.13;5050964;28;19944;-83
2023/10/08 13:24:35;;;;;;;;;;;;;;;21.10;59.54;100855.84;5042401;28;20313;-82
2023/10/08 13:27:01;;;;;;;;;;;;;;;21.19;59.54;100861.28;5042486;28;19924;-83
2023/10/08 13:29:32;;;;;;;;;;;;;;;21.20;58.98;100867.47;5045181;28;19971;-83
2023/10/08 13:31:58;;;;;;;;;;;;;;;21.12;59.33;100868.31;5041996;28;20408;-82
2023/10/08 13:34:23;;;;;;;;;;;;;;;21.19;58.99;100863.94;5049129;28;19964;-84
2023/10/08 13:36:49;;;;;;;;;;;;;;;21.14;59.31;100857.66;5028423;28;19971;-83
2023/10/08 13:39:18;;;;;;;;;;;;;;;21.17;59.42;100854.16;5043263;28;19929;-83
2023/10/08 13:41:47;;;;;;;;;;;;;;;21.11;59.41;100850.56;5042782;28;20043;-83
2023/10/08 13:44:13;;;;;;;;;;;;;;;21.19;59.15;100852.41;5050162;28;20409;-82
2023/10/08 13:46:42;;;;;;;;;;;;;;;21.21;59.42;100862.19;5050020;28;19963;-84
2023/10/08 13:49:10;;;;;;;;;;;;;;;21.25;58.78;100864.03;5037074;28;19964;-82
2023/10/08 13:51:37;;;;;;;;;;;;;;;21.30;59.66;100859.66;5044613;28;19920;-81
2023/10/08 13:54:06;;;;;;;;;;;;;;;21.26;60.09;100863.13;5042988;28;20641;-82
2023/10/08 13:56:32;;;;;;;;;;;;;;;21.25;59.38;100856.06;5047154;28;19927;-82
2023/10/08 13:59:11;;;;;;;;;;;;;;;21.28;59.83;100858.72;5051834;28;20411;-82
2023/10/08 14:01:38;;;;;;;;;;;;;;;21.29;60.12;100855.22;5050207;28;19932;-84